sensor_id;sensor_type;location;lat;lon;timestamp;temperature;humidity
11532;DHT22;5822;51.000;5.874;2023-03-14T00:00:55;12.30;99.90
11532;DHT22;5822;51.000;5.874;2023-03-14T00:03:21;12.20;99.90
11532;DHT22;5822;51.000;5.874;2023-03-14T00:05:46;12.30;99.90
11532;DHT22;5822;51.000;5.874;2023-03-14T00:08:13;12.20;99.90
11532;DHT22;5822;51.000;5.874;2023-03-14T00:10:39;12.10;99.90
11532;DHT22;5822;51.000;5.874;2023-03-14T00:13:05;12.10;99.90
11532;DHT22;5822;51.000;5.874;2023-03-14T00:15:35;12.10;99.90
11532;DHT22;5822;51.000;5.874;2023-03-14T00:18:01;12.10;99.90
11532;DHT22;5822;51.000;5.874;2023-03-14T00:20:27;12.10;99.90
11532;DHT22;5822;51.000;5.874;2023-03-14T00:22:52;12.00;99.90
11532;DHT22;5822;51.000;5.874;2023-03-14T00:25:18;12.00;99.90
11532;DHT22;5822;51.000;5.874;2023-03-14T00:27:44;12.00;99.90
11532;DHT22;5822;51.000;5.874;2023-03-14T00:30:10;12.00;99.90
11532;DHT22;5822;51.000;5.874;2023-03-14T00:32:36;12.10;99.90
11532;DHT22;5822;51.000;5.874;2023-03-14T00:35:02;12.00;99.90
11532;DHT22;5822;51.000;5.874;2023-03-14T00:37:28;12.00;99.90
11532;DHT22;5822;51.000;5.874;2023-03-14T00:39:54;12.00;99.90
11532;DHT22;5822;51.000;5.874;2023-03-14T00:42:19;12.00;99.90
11532;DHT22;5822;51.000;5.874;2023-03-14T00:44:45;12.00;99.90
11532;DHT22;5822;51.000;5.874;2023-03-14T00:47:11;12.00;99.90
11532;DHT22;5822;51.000;5.874;2023-03-14T00:49:36;11.90;99.90
11532;DHT22;5822;51.000;5.874;2023-03-14T00:52:03;12.00;99.90
11532;DHT22;5822;51.000;5.874;2023-03-14T00:54:28;11.90;99.90
11532;DHT22;5822;51.000;5.874;2023-03-14T00:56:54;12.00;99.90
11532;DHT22;5822;51.000;5.874;2023-03-14T00:59:20;12.00;99.90
11532;DHT22;5822;51.000;5.874;2023-03-14T01:01:46;11.90;99.90
11532;DHT22;5822;51.000;5.874;2023-03-14T01:04:11;11.90;99.90
11532;DHT22;5822;51.000;5.874;2023-03-14T01:06:37;11.90;99.90
11532;DHT22;5822;51.000;5.874;2023-03-14T01:09:04;11.90;99.90
11532;DHT22;5822;51.000;5.874;2023-03-14T01:11:34;12.00;99.90
11532;DHT22;5822;51.000;5.874;2023-03-14T01:14:00;12.00;99.90
11532;DHT22;5822;51.000;5.874;2023-03-14T01:16:28;11.90;99.90
11532;DHT22;5822;51.000;5.874;2023-03-14T01:18:53;11.90;99.90
11532;DHT22;5822;51.000;5.874;2023-03-14T01:21:20;11.90;99.90
11532;DHT22;5822;51.000;5.874;2023-03-14T01:23:47;11.90;99.90
11532;DHT22;5822;51.000;5.874;2023-03-14T01:26:15;11.90;99.90
11532;DHT22;5822;51.000;5.874;2023-03-14T01:28:41;11.80;99.90
11532;DHT22;5822;51.000;5.874;2023-03-14T01:31:09;11.80;99.90
11532;DHT22;5822;51.000;5.874;2023-03-14T01:33:35;11.80;99.90
11532;DHT22;5822;51.000;5.874;2023-03-14T01:36:01;11.80;99.90
11532;DHT22;5822;51.000;5.874;2023-03-14T01:38:31;11.80;99.90
11532;DHT22;5822;51.000;5.874;2023-03-14T01:40:57;11.80;99.90
11532;DHT22;5822;51.000;5.874;2023-03-14T01:43:24;11.80;99.90
11532;DHT22;5822;51.000;5.874;2023-03-14T01:48:57;11.70;99.90
11532;DHT22;5822;51.000;5.874;2023-03-14T01:54:25;11.80;99.90
11532;DHT22;5822;51.000;5.874;2023-03-14T01:57:17;11.80;99.90
11532;DHT22;5822;51.000;5.874;2023-03-14T01:59:48;11.80;99.90
11532;DHT22;5822;51.000;5.874;2023-03-14T02:02:16;11.80;99.90
11532;DHT22;5822;51.000;5.874;2023-03-14T02:04:42;11.80;99.90
11532;DHT22;5822;51.000;5.874;2023-03-14T02:07:18;11.90;99.90
11532;DHT22;5822;51.000;5.874;2023-03-14T02:09:46;11.90;99.90
11532;DHT22;5822;51.000;5.874;2023-03-14T02:12:15;11.90;99.90
11532;DHT22;5822;51.000;5.874;2023-03-14T02:14:42;11.90;99.90
11532;DHT22;5822;51.000;5.874;2023-03-14T02:17:13;11.90;99.90
11532;DHT22;5822;51.000;5.874;2023-03-14T02:22:26;11.80;99.90
11532;DHT22;5822;51.000;5.874;2023-03-14T02:27:41;11.90;99.90
11532;DHT22;5822;51.000;5.874;2023-03-14T02:30:11;11.90;99.90
11532;DHT22;5822;51.000;5.874;2023-03-14T02:32:40;11.90;99.90
11532;DHT22;5822;51.000;5.874;2023-03-14T02:35:12;11.90;99.90
11532;DHT22;5822;51.000;5.874;2023-03-14T02:37:59;11.90;99.90
11532;DHT22;5822;51.000;5.874;2023-03-14T02:40:26;11.90;99.90
11532;DHT22;5822;51.000;5.874;2023-03-14T02:42:52;12.00;99.90
11532;DHT22;5822;51.000;5.874;2023-03-14T02:47:46;11.90;99.90
11532;DHT22;5822;51.000;5.874;2023-03-14T02:50:18;11.90;99.90
11532;DHT22;5822;51.000;5.874;2023-03-14T02:52:45;11.90;99.90
11532;DHT22;5822;51.000;5.874;2023-03-14T02:55:11;11.90;99.90
11532;DHT22;5822;51.000;5.874;2023-03-14T02:57:37;11.90;99.90
11532;DHT22;5822;51.000;5.874;2023-03-14T03:00:04;11.90;99.90
11532;DHT22;5822;51.000;5.874;2023-03-14T03:02:30;11.90;99.90
11532;DHT22;5822;51.000;5.874;2023-03-14T03:04:56;11.90;99.90
11532;DHT22;5822;51.000;5.874;2023-03-14T03:07:22;11.90;99.90
11532;DHT22;5822;51.000;5.874;2023-03-14T03:09:48;11.80;99.90
11532;DHT22;5822;51.000;5.874;2023-03-14T03:12:13;11.90;99.90
11532;DHT22;5822;51.000;5.874;2023-03-14T03:14:39;11.90;99.90
11532;DHT22;5822;51.000;5.874;2023-03-14T03:17:05;11.80;99.90
11532;DHT22;5822;51.000;5.874;2023-03-14T03:19:31;11.80;99.90
11532;DHT22;5822;51.000;5.874;2023-03-14T03:21:57;11.80;99.90
11532;DHT22;5822;51.000;5.874;2023-03-14T03:24:24;11.70;99.90
11532;DHT22;5822;51.000;5.874;2023-03-14T03:26:50;11.70;99.90
11532;DHT22;5822;51.000;5.874;2023-03-14T03:29:16;11.60;99.90
11532;DHT22;5822;51.000;5.874;2023-03-14T03:31:41;11.60;99.90
11532;DHT22;5822;51.000;5.874;2023-03-14T03:34:07;11.60;99.90
11532;DHT22;5822;51.000;5.874;2023-03-14T03:36:33;11.60;99.90
11532;DHT22;5822;51.000;5.874;2023-03-14T03:38:59;11.60;99.90
11532;DHT22;5822;51.000;5.874;2023-03-14T03:41:25;11.70;99.90
11532;DHT22;5822;51.000;5.874;2023-03-14T03:43:50;11.60;99.90
11532;DHT22;5822;51.000;5.874;2023-03-14T03:46:16;11.70;99.90
11532;DHT22;5822;51.000;5.874;2023-03-14T03:48:42;11.60;99.90
11532;DHT22;5822;51.000;5.874;2023-03-14T03:51:10;11.70;99.90
11532;DHT22;5822;51.000;5.874;2023-03-14T03:53:37;11.60;99.90
11532;DHT22;5822;51.000;5.874;2023-03-14T03:56:03;11.60;99.90
11532;DHT22;5822;51.000;5.874;2023-03-14T03:58:28;11.70;99.90
11532;DHT22;5822;51.000;5.874;2023-03-14T04:00:54;11.70;99.90
11532;DHT22;5822;51.000;5.874;2023-03-14T04:03:20;11.70;99.90
11532;DHT22;5822;51.000;5.874;2023-03-14T04:05:45;11.70;99.90
11532;DHT22;5822;51.000;5.874;2023-03-14T04:08:11;11.70;99.90
11532;DHT22;5822;51.000;5.874;2023-03-14T04:10:37;11.70;99.90
11532;DHT22;5822;51.000;5.874;2023-03-14T04:13:02;11.70;99.90
11532;DHT22;5822;51.000;5.874;2023-03-14T04:15:28;11.80;99.90
11532;DHT22;5822;51.000;5.874;2023-03-14T04:17:58;11.70;99.90
11532;DHT22;5822;51.000;5.874;2023-03-14T04:20:24;11.70;99.90
11532;DHT22;5822;51.000;5.874;2023-03-14T04:22:49;11.70;99.90
11532;DHT22;5822;51.000;5.874;2023-03-14T04:25:15;11.70;99.90
11532;DHT22;5822;51.000;5.874;2023-03-14T04:27:42;11.70;99.90
11532;DHT22;5822;51.000;5.874;2023-03-14T04:30:08;11.70;99.90
11532;DHT22;5822;51.000;5.874;2023-03-14T04:32:34;11.60;99.90
11532;DHT22;5822;51.000;5.874;2023-03-14T04:35:00;11.60;99.90
11532;DHT22;5822;51.000;5.874;2023-03-14T04:37:25;11.70;99.90
11532;DHT22;5822;51.000;5.874;2023-03-14T04:39:51;11.70;99.90
11532;DHT22;5822;51.000;5.874;2023-03-14T04:42:16;11.70;99.90
11532;DHT22;5822;51.000;5.874;2023-03-14T04:44:42;11.70;99.90
11532;DHT22;5822;51.000;5.874;2023-03-14T04:47:08;11.70;99.90
11532;DHT22;5822;51.000;5.874;2023-03-14T04:49:34;11.70;99.90
11532;DHT22;5822;51.000;5.874;2023-03-14T04:52:00;11.60;99.90
11532;DHT22;5822;51.000;5.874;2023-03-14T04:54:25;11.80;99.90
11532;DHT22;5822;51.000;5.874;2023-03-14T04:56:51;11.70;99.90
11532;DHT22;5822;51.000;5.874;2023-03-14T04:59:16;11.70;99.90
11532;DHT22;5822;51.000;5.874;2023-03-14T05:01:42;11.60;99.90
11532;DHT22;5822;51.000;5.874;2023-03-14T05:04:08;11.60;99.90
11532;DHT22;5822;51.000;5.874;2023-03-14T05:06:33;11.60;99.90
11532;DHT22;5822;51.000;5.874;2023-03-14T05:09:00;11.60;99.90
11532;DHT22;5822;51.000;5.874;2023-03-14T05:11:25;11.50;99.90
11532;DHT22;5822;51.000;5.874;2023-03-14T05:13:51;11.60;99.90
11532;DHT22;5822;51.000;5.874;2023-03-14T05:16:17;11.60;99.90
11532;DHT22;5822;51.000;5.874;2023-03-14T05:18:42;11.70;99.90
11532;DHT22;5822;51.000;5.874;2023-03-14T05:21:08;11.70;99.90
11532;DHT22;5822;51.000;5.874;2023-03-14T05:23:33;11.70;99.90
11532;DHT22;5822;51.000;5.874;2023-03-14T05:25:59;11.70;99.90
11532;DHT22;5822;51.000;5.874;2023-03-14T05:28:25;11.70;99.90
11532;DHT22;5822;51.000;5.874;2023-03-14T05:30:50;11.70;99.90
11532;DHT22;5822;51.000;5.874;2023-03-14T05:33:16;11.70;99.90
11532;DHT22;5822;51.000;5.874;2023-03-14T05:35:42;11.70;99.90
11532;DHT22;5822;51.000;5.874;2023-03-14T05:38:08;11.60;99.90
11532;DHT22;5822;51.000;5.874;2023-03-14T05:40:34;11.60;99.90
11532;DHT22;5822;51.000;5.874;2023-03-14T05:43:00;11.60;99.90
11532;DHT22;5822;51.000;5.874;2023-03-14T05:45:25;11.70;99.90
11532;DHT22;5822;51.000;5.874;2023-03-14T05:47:51;11.60;99.90
11532;DHT22;5822;51.000;5.874;2023-03-14T05:50:17;11.70;99.90
11532;DHT22;5822;51.000;5.874;2023-03-14T05:52:43;11.70;99.90
11532;DHT22;5822;51.000;5.874;2023-03-14T05:55:08;11.70;99.90
11532;DHT22;5822;51.000;5.874;2023-03-14T05:57:34;11.70;99.90
11532;DHT22;5822;51.000;5.874;2023-03-14T06:00:00;11.70;99.90
11532;DHT22;5822;51.000;5.874;2023-03-14T06:02:25;11.70;99.90
11532;DHT22;5822;51.000;5.874;2023-03-14T06:04:51;11.70;99.90
11532;DHT22;5822;51.000;5.874;2023-03-14T06:07:17;11.70;99.90
11532;DHT22;5822;51.000;5.874;2023-03-14T06:09:43;11.70;99.90
11532;DHT22;5822;51.000;5.874;2023-03-14T06:12:08;11.70;99.90
11532;DHT22;5822;51.000;5.874;2023-03-14T06:14:34;11.70;99.90
11532;DHT22;5822;51.000;5.874;2023-03-14T06:16:59;11.80;99.90
11532;DHT22;5822;51.000;5.874;2023-03-14T06:19:25;11.80;99.90
11532;DHT22;5822;51.000;5.874;2023-03-14T06:21:51;11.80;99.90
11532;DHT22;5822;51.000;5.874;2023-03-14T06:24:17;11.70;99.90
11532;DHT22;5822;51.000;5.874;2023-03-14T06:26:43;11.70;99.90
11532;DHT22;5822;51.000;5.874;2023-03-14T06:29:09;11.80;99.90
11532;DHT22;5822;51.000;5.874;2023-03-14T06:31:35;11.70;99.90
11532;DHT22;5822;51.000;5.874;2023-03-14T06:34:00;11.80;99.90
11532;DHT22;5822;51.000;5.874;2023-03-14T06:36:26;11.70;99.90
11532;DHT22;5822;51.000;5.874;2023-03-14T06:38:52;11.70;99.90
11532;DHT22;5822;51.000;5.874;2023-03-14T06:41:17;11.70;99.90
11532;DHT22;5822;51.000;5.874;2023-03-14T06:43:43;11.70;99.90
11532;DHT22;5822;51.000;5.874;2023-03-14T06:46:09;11.70;99.90
11532;DHT22;5822;51.000;5.874;2023-03-14T06:48:35;11.70;99.90
11532;DHT22;5822;51.000;5.874;2023-03-14T06:51:00;11.80;99.90
11532;DHT22;5822;51.000;5.874;2023-03-14T06:53:26;11.80;99.90
11532;DHT22;5822;51.000;5.874;2023-03-14T06:55:52;11.70;99.90
11532;DHT22;5822;51.000;5.874;2023-03-14T06:58:17;11.70;99.90
11532;DHT22;5822;51.000;5.874;2023-03-14T07:00:43;11.80;99.90
11532;DHT22;5822;51.000;5.874;2023-03-14T07:03:10;11.80;99.90
11532;DHT22;5822;51.000;5.874;2023-03-14T07:05:35;11.80;99.90
11532;DHT22;5822;51.000;5.874;2023-03-14T07:08:01;11.80;99.90
11532;DHT22;5822;51.000;5.874;2023-03-14T07:10:27;11.90;99.90
11532;DHT22;5822;51.000;5.874;2023-03-14T07:12:52;11.90;99.90
11532;DHT22;5822;51.000;5.874;2023-03-14T07:15:19;11.80;99.90
11532;DHT22;5822;51.000;5.874;2023-03-14T07:17:45;11.80;99.90
11532;DHT22;5822;51.000;5.874;2023-03-14T07:20:13;11.90;99.90
11532;DHT22;5822;51.000;5.874;2023-03-14T07:22:38;11.90;99.90
11532;DHT22;5822;51.000;5.874;2023-03-14T07:25:04;12.00;99.90
11532;DHT22;5822;51.000;5.874;2023-03-14T07:27:30;12.00;99.90
11532;DHT22;5822;51.000;5.874;2023-03-14T07:29:56;12.00;99.90
11532;DHT22;5822;51.000;5.874;2023-03-14T07:32:21;12.10;99.90
11532;DHT22;5822;51.000;5.874;2023-03-14T07:34:47;12.00;99.90
11532;DHT22;5822;51.000;5.874;2023-03-14T07:37:13;12.00;99.90
11532;DHT22;5822;51.000;5.874;2023-03-14T07:39:38;12.00;99.90
11532;DHT22;5822;51.000;5.874;2023-03-14T07:42:04;12.10;99.90
11532;DHT22;5822;51.000;5.874;2023-03-14T07:44:30;12.20;99.90
11532;DHT22;5822;51.000;5.874;2023-03-14T07:46:55;12.10;99.90
11532;DHT22;5822;51.000;5.874;2023-03-14T07:49:21;12.20;99.90
11532;DHT22;5822;51.000;5.874;2023-03-14T07:51:50;12.20;99.90
11532;DHT22;5822;51.000;5.874;2023-03-14T07:54:16;12.20;99.90
11532;DHT22;5822;51.000;5.874;2023-03-14T07:56:42;12.20;99.90
11532;DHT22;5822;51.000;5.874;2023-03-14T07:59:07;12.20;99.90
11532;DHT22;5822;51.000;5.874;2023-03-14T08:01:33;12.10;99.90
11532;DHT22;5822;51.000;5.874;2023-03-14T08:03:59;12.00;99.90
11532;DHT22;5822;51.000;5.874;2023-03-14T08:06:24;12.00;99.90
11532;DHT22;5822;51.000;5.874;2023-03-14T08:08:50;11.80;99.90
11532;DHT22;5822;51.000;5.874;2023-03-14T08:11:16;11.70;99.90
11532;DHT22;5822;51.000;5.874;2023-03-14T08:13:41;11.80;99.90
11532;DHT22;5822;51.000;5.874;2023-03-14T08:16:08;11.80;99.90
11532;DHT22;5822;51.000;5.874;2023-03-14T08:18:33;11.80;99.90
11532;DHT22;5822;51.000;5.874;2023-03-14T08:20:59;11.90;99.90
11532;DHT22;5822;51.000;5.874;2023-03-14T08:23:25;11.90;99.90
11532;DHT22;5822;51.000;5.874;2023-03-14T08:25:51;11.80;99.90
11532;DHT22;5822;51.000;5.874;2023-03-14T08:28:18;11.70;99.90
11532;DHT22;5822;51.000;5.874;2023-03-14T08:30:43;11.70;99.90
11532;DHT22;5822;51.000;5.874;2023-03-14T08:33:09;11.30;99.90
11532;DHT22;5822;51.000;5.874;2023-03-14T08:35:37;11.00;99.90
11532;DHT22;5822;51.000;5.874;2023-03-14T08:38:03;10.70;99.90
11532;DHT22;5822;51.000;5.874;2023-03-14T08:40:28;10.50;99.90
11532;DHT22;5822;51.000;5.874;2023-03-14T08:42:54;10.40;99.90
11532;DHT22;5822;51.000;5.874;2023-03-14T08:45:20;10.30;99.90
11532;DHT22;5822;51.000;5.874;2023-03-14T08:47:47;10.20;99.90
11532;DHT22;5822;51.000;5.874;2023-03-14T08:50:13;10.10;99.90
11532;DHT22;5822;51.000;5.874;2023-03-14T08:52:39;10.00;99.90
11532;DHT22;5822;51.000;5.874;2023-03-14T08:55:07;10.00;99.90
11532;DHT22;5822;51.000;5.874;2023-03-14T08:57:33;10.00;99.90
11532;DHT22;5822;51.000;5.874;2023-03-14T08:59:58;9.80;99.90
11532;DHT22;5822;51.000;5.874;2023-03-14T09:02:25;9.80;99.90
11532;DHT22;5822;51.000;5.874;2023-03-14T09:04:51;9.70;99.90
11532;DHT22;5822;51.000;5.874;2023-03-14T09:07:18;9.70;99.90
11532;DHT22;5822;51.000;5.874;2023-03-14T09:09:44;9.70;99.90
11532;DHT22;5822;51.000;5.874;2023-03-14T09:12:11;9.80;99.90
11532;DHT22;5822;51.000;5.874;2023-03-14T09:14:36;9.80;99.90
11532;DHT22;5822;51.000;5.874;2023-03-14T09:17:03;9.90;99.90
11532;DHT22;5822;51.000;5.874;2023-03-14T09:19:28;9.80;99.90
11532;DHT22;5822;51.000;5.874;2023-03-14T09:21:54;9.70;99.90
11532;DHT22;5822;51.000;5.874;2023-03-14T09:24:20;9.70;99.90
11532;DHT22;5822;51.000;5.874;2023-03-14T09:26:46;9.60;99.90
11532;DHT22;5822;51.000;5.874;2023-03-14T09:29:12;9.60;99.90
11532;DHT22;5822;51.000;5.874;2023-03-14T09:31:38;9.60;99.90
11532;DHT22;5822;51.000;5.874;2023-03-14T09:34:03;9.60;99.90
11532;DHT22;5822;51.000;5.874;2023-03-14T09:36:30;9.60;99.90
11532;DHT22;5822;51.000;5.874;2023-03-14T09:38:56;9.60;99.90
11532;DHT22;5822;51.000;5.874;2023-03-14T09:41:24;9.70;99.90
11532;DHT22;5822;51.000;5.874;2023-03-14T09:44:14;9.70;99.90
11532;DHT22;5822;51.000;5.874;2023-03-14T09:46:44;9.70;99.90
11532;DHT22;5822;51.000;5.874;2023-03-14T09:51:52;9.70;99.90
11532;DHT22;5822;51.000;5.874;2023-03-14T09:56:54;9.80;99.90
11532;DHT22;5822;51.000;5.874;2023-03-14T09:59:20;9.80;99.90
11532;DHT22;5822;51.000;5.874;2023-03-14T10:01:46;9.80;99.90
11532;DHT22;5822;51.000;5.874;2023-03-14T10:04:15;9.80;99.90
11532;DHT22;5822;51.000;5.874;2023-03-14T10:06:42;9.80;99.90
11532;DHT22;5822;51.000;5.874;2023-03-14T10:09:19;9.80;99.90
11532;DHT22;5822;51.000;5.874;2023-03-14T10:11:53;9.70;99.90
11532;DHT22;5822;51.000;5.874;2023-03-14T10:14:32;9.70;99.90
11532;DHT22;5822;51.000;5.874;2023-03-14T10:17:09;9.70;99.90
11532;DHT22;5822;51.000;5.874;2023-03-14T10:19:36;9.80;99.90
11532;DHT22;5822;51.000;5.874;2023-03-14T10:22:04;9.80;99.90
11532;DHT22;5822;51.000;5.874;2023-03-14T10:24:33;9.80;99.90
11532;DHT22;5822;51.000;5.874;2023-03-14T10:27:17;9.80;99.90
11532;DHT22;5822;51.000;5.874;2023-03-14T10:29:58;9.80;99.90
11532;DHT22;5822;51.000;5.874;2023-03-14T10:32:37;9.80;99.90
11532;DHT22;5822;51.000;5.874;2023-03-14T10:35:18;9.80;99.90
11532;DHT22;5822;51.000;5.874;2023-03-14T10:37:53;9.90;99.90
11532;DHT22;5822;51.000;5.874;2023-03-14T10:40:26;9.90;99.90
11532;DHT22;5822;51.000;5.874;2023-03-14T10:42:52;9.90;99.90
11532;DHT22;5822;51.000;5.874;2023-03-14T10:45:41;9.90;99.90
11532;DHT22;5822;51.000;5.874;2023-03-14T10:53:17;9.90;99.90
11532;DHT22;5822;51.000;5.874;2023-03-14T10:55:44;10.00;99.90
11532;DHT22;5822;51.000;5.874;2023-03-14T10:58:28;10.00;99.90
11532;DHT22;5822;51.000;5.874;2023-03-14T11:01:03;10.00;99.90
11532;DHT22;5822;51.000;5.874;2023-03-14T11:03:36;10.00;99.90
11532;DHT22;5822;51.000;5.874;2023-03-14T11:11:24;10.10;99.90
11532;DHT22;5822;51.000;5.874;2023-03-14T11:29:41;9.10;99.90
11532;DHT22;5822;51.000;5.874;2023-03-14T11:32:32;9.20;99.90
11532;DHT22;5822;51.000;5.874;2023-03-14T11:35:04;9.20;99.90
11532;DHT22;5822;51.000;5.874;2023-03-14T11:37:36;9.20;99.90
11532;DHT22;5822;51.000;5.874;2023-03-14T11:40:21;9.20;99.90
11532;DHT22;5822;51.000;5.874;2023-03-14T11:42:53;9.30;99.90
11532;DHT22;5822;51.000;5.874;2023-03-14T11:45:27;9.40;99.90
11532;DHT22;5822;51.000;5.874;2023-03-14T11:50:57;9.50;99.90
11532;DHT22;5822;51.000;5.874;2023-03-14T11:53:45;9.50;99.90
11532;DHT22;5822;51.000;5.874;2023-03-14T11:56:25;9.50;99.90
11532;DHT22;5822;51.000;5.874;2023-03-14T11:58:57;9.50;99.90
11532;DHT22;5822;51.000;5.874;2023-03-14T12:01:33;9.40;99.90
11532;DHT22;5822;51.000;5.874;2023-03-14T12:04:34;9.50;99.90
11532;DHT22;5822;51.000;5.874;2023-03-14T12:06:56;9.40;99.90
11532;DHT22;5822;51.000;5.874;2023-03-14T12:09:25;9.40;99.90
11532;DHT22;5822;51.000;5.874;2023-03-14T12:11:52;9.30;99.90
11532;DHT22;5822;51.000;5.874;2023-03-14T12:14:33;9.20;99.90
11532;DHT22;5822;51.000;5.874;2023-03-14T12:17:39;9.10;99.90
11532;DHT22;5822;51.000;5.874;2023-03-14T12:25:26;9.10;99.90
11532;DHT22;5822;51.000;5.874;2023-03-14T12:30:38;9.10;99.90
11532;DHT22;5822;51.000;5.874;2023-03-14T12:35:51;9.00;99.90
11532;DHT22;5822;51.000;5.874;2023-03-14T12:43:33;9.00;99.90
11532;DHT22;5822;51.000;5.874;2023-03-14T12:46:18;9.00;99.90
11532;DHT22;5822;51.000;5.874;2023-03-14T12:48:48;9.00;99.90
11532;DHT22;5822;51.000;5.874;2023-03-14T12:51:37;9.10;99.90
11532;DHT22;5822;51.000;5.874;2023-03-14T12:59:38;9.00;99.90
11532;DHT22;5822;51.000;5.874;2023-03-14T13:02:17;8.80;99.90
11532;DHT22;5822;51.000;5.874;2023-03-14T13:10:23;8.30;99.90
11532;DHT22;5822;51.000;5.874;2023-03-14T13:12:52;8.20;99.90
11532;DHT22;5822;51.000;5.874;2023-03-14T13:15:26;8.30;99.90
11532;DHT22;5822;51.000;5.874;2023-03-14T13:17:55;8.30;99.90
11532;DHT22;5822;51.000;5.874;2023-03-14T13:22:54;8.30;99.90
11532;DHT22;5822;51.000;5.874;2023-03-14T13:25:20;8.40;99.90
11532;DHT22;5822;51.000;5.874;2023-03-14T13:27:48;8.50;99.90
11532;DHT22;5822;51.000;5.874;2023-03-14T13:30:27;8.60;99.90
11532;DHT22;5822;51.000;5.874;2023-03-14T13:32:53;8.60;99.90
11532;DHT22;5822;51.000;5.874;2023-03-14T13:35:25;8.70;99.90
11532;DHT22;5822;51.000;5.874;2023-03-14T13:38:01;8.70;99.90
11532;DHT22;5822;51.000;5.874;2023-03-14T13:40:32;8.70;99.90
11532;DHT22;5822;51.000;5.874;2023-03-14T13:43:18;8.80;99.90
11532;DHT22;5822;51.000;5.874;2023-03-14T13:46:02;8.80;99.90
11532;DHT22;5822;51.000;5.874;2023-03-14T13:48:29;8.80;99.90
11532;DHT22;5822;51.000;5.874;2023-03-14T13:50:59;8.70;99.90
11532;DHT22;5822;51.000;5.874;2023-03-14T13:53:26;8.90;99.90
11532;DHT22;5822;51.000;5.874;2023-03-14T13:55:52;8.80;99.90
11532;DHT22;5822;51.000;5.874;2023-03-14T13:58:29;8.80;99.90
11532;DHT22;5822;51.000;5.874;2023-03-14T14:01:10;8.90;99.90
11532;DHT22;5822;51.000;5.874;2023-03-14T14:03:39;8.90;99.90
11532;DHT22;5822;51.000;5.874;2023-03-14T14:08:54;9.00;99.90
11532;DHT22;5822;51.000;5.874;2023-03-14T14:14:27;9.10;99.90
11532;DHT22;5822;51.000;5.874;2023-03-14T14:16:55;9.10;99.90
11532;DHT22;5822;51.000;5.874;2023-03-14T14:19:22;9.00;99.90
11532;DHT22;5822;51.000;5.874;2023-03-14T14:21:49;9.00;99.90
11532;DHT22;5822;51.000;5.874;2023-03-14T14:24:16;9.00;99.90
11532;DHT22;5822;51.000;5.874;2023-03-14T14:26:51;9.00;99.90
11532;DHT22;5822;51.000;5.874;2023-03-14T14:29:31;8.90;99.90
11532;DHT22;5822;51.000;5.874;2023-03-14T14:32:13;9.00;99.90
11532;DHT22;5822;51.000;5.874;2023-03-14T14:34:41;9.00;99.90
11532;DHT22;5822;51.000;5.874;2023-03-14T14:37:28;9.10;99.90
11532;DHT22;5822;51.000;5.874;2023-03-14T14:39:57;9.20;99.90
11532;DHT22;5822;51.000;5.874;2023-03-14T14:42:29;9.20;99.90
11532;DHT22;5822;51.000;5.874;2023-03-14T14:44:59;9.20;99.90
11532;DHT22;5822;51.000;5.874;2023-03-14T14:47:27;9.20;99.90
11532;DHT22;5822;51.000;5.874;2023-03-14T14:49:55;9.30;99.90
11532;DHT22;5822;51.000;5.874;2023-03-14T14:52:44;9.40;99.90
11532;DHT22;5822;51.000;5.874;2023-03-14T14:55:34;9.40;99.90
11532;DHT22;5822;51.000;5.874;2023-03-14T14:58:34;9.40;99.90
11532;DHT22;5822;51.000;5.874;2023-03-14T15:01:24;9.40;99.90
11532;DHT22;5822;51.000;5.874;2023-03-14T15:03:55;9.50;99.90
11532;DHT22;5822;51.000;5.874;2023-03-14T15:06:21;9.60;99.90
11532;DHT22;5822;51.000;5.874;2023-03-14T15:08:49;9.60;99.90
11532;DHT22;5822;51.000;5.874;2023-03-14T15:11:23;9.60;99.90
11532;DHT22;5822;51.000;5.874;2023-03-14T15:13:50;9.50;99.90
11532;DHT22;5822;51.000;5.874;2023-03-14T15:16:18;9.40;99.90
11532;DHT22;5822;51.000;5.874;2023-03-14T15:18:47;9.40;99.90
11532;DHT22;5822;51.000;5.874;2023-03-14T15:21:15;9.30;99.90
11532;DHT22;5822;51.000;5.874;2023-03-14T15:23:40;9.20;99.90
11532;DHT22;5822;51.000;5.874;2023-03-14T15:26:18;9.20;99.90
11532;DHT22;5822;51.000;5.874;2023-03-14T15:28:44;9.20;99.90
11532;DHT22;5822;51.000;5.874;2023-03-14T15:31:13;9.10;99.90
11532;DHT22;5822;51.000;5.874;2023-03-14T15:33:40;9.10;99.90
11532;DHT22;5822;51.000;5.874;2023-03-14T15:38:42;8.90;99.90
11532;DHT22;5822;51.000;5.874;2023-03-14T15:41:09;8.90;99.90
11532;DHT22;5822;51.000;5.874;2023-03-14T15:43:35;8.90;99.90
11532;DHT22;5822;51.000;5.874;2023-03-14T15:46:03;8.80;99.90
11532;DHT22;5822;51.000;5.874;2023-03-14T15:48:31;8.80;99.90
11532;DHT22;5822;51.000;5.874;2023-03-14T15:50:57;8.70;99.90
11532;DHT22;5822;51.000;5.874;2023-03-14T15:53:22;8.60;99.90
11532;DHT22;5822;51.000;5.874;2023-03-14T15:55:48;8.60;99.90
11532;DHT22;5822;51.000;5.874;2023-03-14T15:58:16;8.60;99.90
11532;DHT22;5822;51.000;5.874;2023-03-14T16:00:42;8.60;99.90
11532;DHT22;5822;51.000;5.874;2023-03-14T16:03:08;8.60;99.90
11532;DHT22;5822;51.000;5.874;2023-03-14T16:05:33;8.60;99.90
11532;DHT22;5822;51.000;5.874;2023-03-14T16:07:59;8.60;99.90
11532;DHT22;5822;51.000;5.874;2023-03-14T16:10:27;8.60;99.90
11532;DHT22;5822;51.000;5.874;2023-03-14T16:12:52;8.60;99.90
11532;DHT22;5822;51.000;5.874;2023-03-14T16:15:18;8.60;99.90
11532;DHT22;5822;51.000;5.874;2023-03-14T16:17:44;8.40;99.90
11532;DHT22;5822;51.000;5.874;2023-03-14T16:20:10;8.50;99.90
11532;DHT22;5822;51.000;5.874;2023-03-14T16:22:36;8.50;99.90
11532;DHT22;5822;51.000;5.874;2023-03-14T16:25:04;8.50;99.90
11532;DHT22;5822;51.000;5.874;2023-03-14T16:27:30;8.50;99.90
11532;DHT22;5822;51.000;5.874;2023-03-14T16:29:57;8.60;99.90
11532;DHT22;5822;51.000;5.874;2023-03-14T16:32:25;8.60;99.90
11532;DHT22;5822;51.000;5.874;2023-03-14T16:34:50;8.50;99.90
11532;DHT22;5822;51.000;5.874;2023-03-14T16:37:16;8.50;99.90
11532;DHT22;5822;51.000;5.874;2023-03-14T16:39:42;8.40;99.90
11532;DHT22;5822;51.000;5.874;2023-03-14T16:42:08;8.40;99.90
11532;DHT22;5822;51.000;5.874;2023-03-14T16:44:33;8.40;99.90
11532;DHT22;5822;51.000;5.874;2023-03-14T16:46:59;8.30;99.90
11532;DHT22;5822;51.000;5.874;2023-03-14T16:49:25;8.20;99.90
11532;DHT22;5822;51.000;5.874;2023-03-14T16:51:50;8.20;99.90
11532;DHT22;5822;51.000;5.874;2023-03-14T16:54:16;8.20;99.90
11532;DHT22;5822;51.000;5.874;2023-03-14T16:56:41;8.20;99.90
11532;DHT22;5822;51.000;5.874;2023-03-14T16:59:07;8.20;99.90
11532;DHT22;5822;51.000;5.874;2023-03-14T17:01:33;8.20;99.90
11532;DHT22;5822;51.000;5.874;2023-03-14T17:03:58;8.10;99.90
11532;DHT22;5822;51.000;5.874;2023-03-14T17:06:26;8.20;99.90
11532;DHT22;5822;51.000;5.874;2023-03-14T17:08:54;8.10;99.90
11532;DHT22;5822;51.000;5.874;2023-03-14T17:11:20;8.20;99.90
11532;DHT22;5822;51.000;5.874;2023-03-14T17:13:46;8.30;99.90
11532;DHT22;5822;51.000;5.874;2023-03-14T17:16:11;8.20;99.90
11532;DHT22;5822;51.000;5.874;2023-03-14T17:18:37;8.20;99.90
11532;DHT22;5822;51.000;5.874;2023-03-14T17:21:04;8.20;99.90
11532;DHT22;5822;51.000;5.874;2023-03-14T17:23:31;8.20;99.90
11532;DHT22;5822;51.000;5.874;2023-03-14T17:25:57;8.10;99.90